Time;durP1;ratioP1;P1;durP2;ratioP2;P2;SDS_P1;SDS_P2;PMS_P1;PMS_P2;Temp;Humidity;BMP_temperature;BMP_pressure;BME280_temperature;BME280_humidity;BME280_pressure;Samples;Min_cycle;Max_cycle;Signal;HPM_P1;HPM_P2
2024/03/30 00:00:55;;;;;;;5.37;4.13;;;11.10;85.90;;;12.83;60.08;95815.38;5017242;28;20043;-37
2024/03/30 00:03:22;;;;;;;6.73;4.33;;;11.00;86.10;;;12.77;60.25;95820.56;5017039;28;20045;-37
2024/03/30 00:06:02;;;;;;;6.97;4.07;;;10.90;86.40;;;12.74;60.49;95815.66;5033298;28;20397;-37
2024/03/30 00:08:30;;;;;;;5.17;4.10;;;10.90;86.80;;;12.71;60.46;95816.09;5033552;28;20045;-37
2024/03/30 00:11:04;;;;;;;5.50;4.13;;;10.80;86.90;;;12.66;60.48;95812.44;5016920;28;20044;-37
2024/03/30 00:13:30;;;;;;;;;;;10.70;87.00;;;12.59;60.17;95816.00;5033455;28;20064;-37
2024/03/30 00:16:05;;;;;;;5.07;4.13;;;10.70;87.70;;;12.57;60.10;95812.72;5033394;28;19944;-37
2024/03/30 00:18:31;;;;;;;6.60;4.70;;;10.60;88.10;;;12.51;60.33;95812.81;5033155;28;20041;-37
2024/03/30 00:20:58;;;;;;;6.83;4.10;;;10.60;87.20;;;12.47;60.39;95814.28;5013410;28;20060;-37
2024/03/30 00:23:25;;;;;;;6.03;4.30;;;10.60;87.50;;;12.41;60.40;95818.63;5011566;28;20033;-37
2024/03/30 00:25:53;;;;;;;8.57;4.27;;;10.50;87.80;;;12.40;60.40;95817.78;5033178;28;20041;-37
2024/03/30 00:28:20;;;;;;;5.90;4.30;;;10.60;87.50;;;12.36;60.47;95811.25;5032833;28;20033;-37
2024/03/30 00:30:46;;;;;;;8.33;4.20;;;10.60;87.00;;;12.35;60.63;95806.97;5032854;28;20041;-37
2024/03/30 00:33:14;;;;;;;8.03;3.80;;;10.60;86.80;;;12.38;60.80;95808.38;5016200;28;20667;-37
2024/03/30 00:35:41;;;;;;;7.33;3.60;;;10.60;86.90;;;12.39;60.72;95802.81;5016447;28;20044;-37
2024/03/30 00:38:08;;;;;;;5.00;3.60;;;10.60;86.20;;;12.41;60.57;95802.63;5032996;28;20034;-37
2024/03/30 00:40:36;;;;;;;7.73;3.83;;;10.70;85.90;;;12.42;60.26;95804.22;5031923;28;20050;-37
2024/03/30 00:43:03;;;;;;;5.63;3.30;;;10.70;85.50;;;12.43;60.18;95805.88;5032328;28;20044;-37
2024/03/30 00:45:30;;;;;;;6.00;3.60;;;10.80;85.20;;;12.44;60.29;95798.69;5032134;28;20509;-37
2024/03/30 00:47:57;;;;;;;11.07;4.07;;;10.80;84.90;;;12.40;60.31;95801.78;5032608;28;20049;-37
2024/03/30 00:50:23;;;;;;;5.53;3.53;;;10.80;84.50;;;12.40;60.41;95795.63;5032414;28;20437;-37
2024/03/30 00:52:50;;;;;;;5.90;3.17;;;10.80;84.40;;;12.42;60.23;95793.56;5032179;28;20046;-37
2024/03/30 00:55:17;;;;;;;8.03;4.00;;;10.80;84.60;;;12.44;60.10;95796.00;5032675;28;20064;-38
2024/03/30 00:57:43;;;;;;;4.83;2.83;;;10.70;84.30;;;12.42;59.99;95788.22;5032508;28;20448;-37
2024/03/30 01:00:11;;;;;;;6.97;3.40;;;10.80;84.00;;;12.44;60.04;95790.69;5032295;28;20052;-37
2024/03/30 01:02:38;;;;;;;6.30;3.67;;;10.80;84.00;;;12.47;60.08;95787.59;5030979;28;20048;-37
2024/03/30 01:05:05;;;;;;;5.57;3.00;;;10.80;83.60;;;12.48;59.70;95792.69;5032451;28;20052;-37
2024/03/30 01:07:32;;;;;;;8.47;3.33;;;10.80;83.50;;;12.50;59.90;95787.13;5016096;28;20052;-37
2024/03/30 01:10:03;;;;;;;7.93;2.90;;;10.80;82.80;;;12.49;59.68;95788.19;5031993;28;20393;-38
2024/03/30 01:12:31;;;;;;;10.07;3.40;;;10.80;83.00;;;12.46;59.27;95792.09;5016035;28;20412;-37
2024/03/30 01:14:58;;;;;;;6.60;3.23;;;10.80;81.90;;;12.43;59.51;95781.03;5032088;28;20041;-37
2024/03/30 01:17:25;;;;;;;10.77;3.57;;;10.80;81.20;;;12.45;59.63;95789.66;5032196;28;20038;-37
2024/03/30 01:19:52;;;;;;;10.23;3.97;;;10.90;81.10;;;12.46;59.39;95784.06;5031741;28;20052;-37
2024/03/30 01:22:19;;;;;;;7.60;3.47;;;10.90;80.40;;;12.48;58.88;95778.53;5015407;28;20030;-37
2024/03/30 01:24:46;;;;;;;11.17;3.43;;;10.90;80.40;;;12.49;58.83;95778.31;5031723;28;20046;-37
2024/03/30 01:27:21;;;;;;;8.70;3.70;;;10.90;79.90;;;12.51;58.57;95776.25;5032006;28;20045;-37
2024/03/30 01:29:49;;;;;;;9.70;4.53;;;10.90;79.70;;;12.50;58.34;95771.91;5031927;28;20060;-37
2024/03/30 01:32:16;;;;;;;17.37;3.80;;;10.90;79.00;;;12.53;58.40;95776.84;5015320;28;20415;-38
2024/03/30 01:34:43;;;;;;;16.67;4.93;;;10.90;78.40;;;12.57;58.12;95782.56;5031604;28;20045;-37
2024/03/30 01:37:09;;;;;;;15.55;3.78;;;11.00;77.80;;;12.60;57.52;95780.28;5031825;28;20042;-37
2024/03/30 01:39:36;;;;;;;17.50;4.45;;;11.00;76.30;;;12.66;57.36;95775.06;5029716;28;20046;-37
2024/03/30 01:42:03;;;;;;;14.93;4.07;;;11.10;75.00;;;12.71;56.91;95772.56;5030459;28;20064;-37
2024/03/30 01:44:30;;;;;;;19.17;4.20;;;11.20;73.90;;;12.76;56.55;95775.41;5031682;28;20046;-38
2024/03/30 01:46:56;;;;;;;16.87;5.27;;;11.20;73.10;;;12.79;56.07;95766.94;5031374;28;20504;-38
2024/03/30 01:49:23;;;;;;;17.30;5.40;;;11.30;72.30;;;12.85;55.75;95771.38;5031662;28;20496;-38
2024/03/30 01:51:50;;;;;;;13.63;4.87;;;11.40;71.60;;;12.90;55.80;95766.22;5014516;28;20041;-37
2024/03/30 01:54:20;;;;;;;17.57;4.17;;;11.40;70.90;;;12.94;55.34;95764.72;4998725;28;20404;-38
2024/03/30 01:56:50;;;;;;;14.83;4.60;;;11.50;71.20;;;12.98;55.21;95771.25;5014713;28;20444;-37
2024/03/30 01:59:17;;;;;;;16.93;4.70;;;11.40;71.60;;;13.00;55.32;95760.34;5015219;28;20045;-38
2024/03/30 02:01:47;;;;;;;10.53;4.33;;;11.40;72.10;;;12.98;54.96;95773.94;5030870;28;20509;-38
2024/03/30 02:04:15;;;;;;;5.22;2.70;;;11.40;71.20;;;12.98;55.15;95765.09;5031141;28;20041;-38
2024/03/30 02:06:43;;;;;;;18.10;3.77;;;11.50;71.60;;;12.97;55.01;95758.94;5031301;28;20048;-37
2024/03/30 02:09:11;;;;;;;15.40;4.30;;;11.40;71.60;;;12.97;54.81;95758.94;5007069;28;20041;-37
2024/03/30 02:11:39;;;;;;;24.60;5.50;;;11.40;71.20;;;12.99;54.62;95761.41;5030756;28;20056;-38
2024/03/30 02:14:08;;;;;;;15.43;5.23;;;11.40;70.70;;;13.01;54.04;95756.66;5030828;28;20049;-37
2024/03/30 02:16:36;;;;;;;26.02;7.45;;;11.50;69.00;;;13.05;53.62;95751.69;5030928;28;20042;-38
2024/03/30 02:19:09;;;;;;;17.80;5.87;;;11.50;66.80;;;13.11;53.05;95753.47;5014732;28;20038;-37
2024/03/30 02:21:36;;;;;;;24.75;5.20;;;11.70;65.40;;;13.18;52.86;95760.38;5030682;28;20405;-37
2024/03/30 02:24:03;;;;;;;26.00;5.70;;;11.70;65.70;;;13.23;52.56;95746.31;5030834;28;20057;-37
2024/03/30 02:26:30;;;;;;;27.43;5.93;;;11.80;65.30;;;13.29;51.89;95748.09;5030904;28;20424;-37
2024/03/30 02:28:57;;;;;;;27.97;7.03;;;11.90;64.00;;;13.36;51.61;95748.88;5030924;28;20057;-37
2024/03/30 02:31:24;;;;;;;25.70;5.95;;;12.00;63.50;;;13.42;51.27;95752.50;5014067;28;20034;-38
2024/03/30 02:33:51;;;;;;;31.77;6.83;;;12.00;63.10;;;13.46;51.15;95748.34;5030457;28;20037;-37
2024/03/30 02:36:19;;;;;;;23.35;5.18;;;12.10;62.80;;;13.53;50.86;95756.25;5014413;28;20041;-37
2024/03/30 02:38:46;;;;;;;22.15;5.50;;;12.20;62.30;;;13.55;50.51;95760.34;5030608;28;20044;-38
2024/03/30 02:41:13;;;;;;;23.83;6.10;;;12.20;62.20;;;13.59;50.24;95748.16;5030480;28;20076;-37
2024/03/30 02:43:40;;;;;;;28.20;6.53;;;12.30;61.10;;;13.63;50.25;95751.19;5030159;28;20429;-37
2024/03/30 02:46:06;;;;;;;28.90;5.80;;;12.30;61.60;;;13.67;50.10;95748.91;5030442;28;20050;-37
2024/03/30 02:48:33;;;;;;;26.20;4.93;;;12.30;61.40;;;13.68;50.24;95755.84;5030537;28;20053;-37
2024/03/30 02:50:59;;;;;;;27.60;5.70;;;12.40;61.20;;;13.70;50.37;95757.25;5013967;28;20050;-37
2024/03/30 02:53:26;;;;;;;23.02;4.72;;;12.40;62.10;;;13.68;50.07;95751.31;5030162;28;20044;-38
2024/03/30 02:55:53;;;;;;;16.73;6.00;;;12.30;61.50;;;13.69;49.94;95752.97;5030175;28;20037;-38
2024/03/30 02:58:20;;;;;;;24.20;6.28;;;12.30;61.60;;;13.68;49.62;95742.50;5030470;28;20037;-38
2024/03/30 03:00:47;;;;;;;29.42;7.25;;;12.30;60.90;;;13.70;49.35;95745.75;5030362;28;20041;-37
2024/03/30 03:03:14;;;;;;;20.52;6.20;;;12.30;60.40;;;13.72;49.06;95746.34;5013253;28;20040;-38
2024/03/30 03:05:40;;;;;;;29.42;6.85;;;12.30;59.80;;;13.74;48.75;95746.91;5030315;28;20049;-38
2024/03/30 03:08:07;;;;;;;18.35;5.57;;;12.40;59.30;;;13.74;48.12;95745.06;5030240;28;20500;-37
2024/03/30 03:10:34;;;;;;;28.70;6.53;;;12.40;58.60;;;13.78;48.08;95751.59;5030154;28;20045;-37
2024/03/30 03:13:00;;;;;;;15.90;5.47;;;12.40;58.20;;;13.81;47.81;95741.50;5029333;28;20045;-38
2024/03/30 03:15:27;;;;;;;27.38;6.88;;;12.40;57.10;;;13.82;47.36;95741.25;5030318;28;20041;-37
2024/03/30 03:17:53;;;;;;;22.83;5.32;;;12.50;56.90;;;13.86;47.16;95734.41;5030098;28;20041;-37
2024/03/30 03:20:20;;;;;;;34.47;6.65;;;12.50;57.00;;;13.89;47.06;95739.28;5030278;28;20416;-37
2024/03/30 03:22:47;;;;;;;28.95;6.90;;;12.60;56.50;;;13.93;46.57;95723.59;5029745;28;20041;-37
2024/03/30 03:25:13;;;;;;;23.35;5.75;;;12.60;55.70;;;13.96;46.34;95728.50;5029906;28;20042;-37
2024/03/30 03:27:40;;;;;;;28.15;7.60;;;12.60;55.60;;;13.98;45.78;95719.22;5034349;28;20045;-37
2024/03/30 03:30:07;;;;;;;29.98;6.40;;;12.70;54.80;;;14.03;45.80;95715.81;5034174;28;20044;-37
2024/03/30 03:32:34;;;;;;;21.95;6.47;;;12.70;54.90;;;14.06;45.11;95704.69;5033827;28;20042;-38
2024/03/30 03:35:00;;;;;;;24.15;5.82;;;12.70;53.80;;;14.09;44.88;95698.84;5034049;28;20041;-37
2024/03/30 03:37:27;;;;;;;27.60;5.93;;;12.80;53.30;;;14.13;44.96;95696.53;5033901;28;20045;-37
2024/03/30 03:39:53;;;;;;;23.88;6.15;;;12.80;52.20;;;14.17;44.65;95700.38;5033903;28;20489;-37
2024/03/30 03:42:20;;;;;;;26.60;5.43;;;12.80;53.00;;;14.21;44.26;95704.25;5016325;28;20045;-37
2024/03/30 03:44:47;;;;;;;15.68;5.25;;;12.90;52.70;;;14.25;43.86;95704.56;5033156;28;20049;-37
2024/03/30 03:47:13;;;;;;;20.35;5.07;;;12.90;51.60;;;14.28;43.75;95712.94;5033635;28;20049;-37
2024/03/30 03:49:40;;;;;;;24.88;5.50;;;13.00;51.90;;;14.29;43.47;95703.91;5033947;28;20421;-37
2024/03/30 03:52:07;;;;;;;22.13;4.53;;;13.00;50.00;;;14.33;43.21;95709.59;5033255;28;20192;-37
2024/03/30 03:54:33;;;;;;;18.52;4.43;;;13.00;50.90;;;14.36;42.93;95714.47;5033759;28;20042;-37
2024/03/30 03:57:00;;;;;;;19.98;3.95;;;13.10;50.40;;;14.40;42.66;95721.00;5033533;28;20033;-38
2024/03/30 03:59:27;;;;;;;22.63;5.88;;;13.10;49.70;;;14.43;42.24;95731.25;5033706;28;20049;-37
2024/03/30 04:01:53;;;;;;;22.58;6.18;;;13.10;49.50;;;14.45;41.93;95726.47;5033138;28;20049;-37
2024/03/30 04:04:20;;;;;;;32.17;5.88;;;13.20;48.90;;;14.48;41.60;95720.66;5033549;28;20045;-37
2024/03/30 04:06:47;;;;;;;22.02;5.28;;;13.20;48.40;;;14.53;41.14;95725.31;5033415;28;20542;-37
2024/03/30 04:09:15;;;;;;;22.88;6.30;;;13.20;47.20;;;14.55;40.80;95720.53;5033387;28;20041;-37
2024/03/30 04:11:42;;;;;;;17.40;4.47;;;13.30;45.60;;;14.61;40.93;95722.31;5033063;28;20052;-38
2024/03/30 04:14:08;;;;;;;26.55;4.55;;;13.30;47.10;;;14.65;40.51;95726.16;5033099;28;20033;-38
2024/03/30 04:16:35;;;;;;;20.98;4.55;;;13.40;46.70;;;14.70;40.53;95720.09;5033318;28;20049;-37
2024/03/30 04:19:01;;;;;;;29.65;6.05;;;13.40;47.00;;;14.70;40.24;95715.56;5033342;28;20048;-37
2024/03/30 04:21:28;;;;;;;17.45;3.75;;;13.40;46.60;;;14.72;40.38;95715.31;5032971;28;20397;-37
2024/03/30 04:23:55;;;;;;;22.75;5.03;;;13.40;46.70;;;14.72;40.22;95724.16;5033198;28;20417;-38
2024/03/30 04:26:22;;;;;;;16.23;5.00;;;13.40;46.50;;;14.74;39.76;95722.06;5025210;28;20068;-38
2024/03/30 04:28:49;;;;;;;23.13;6.20;;;13.40;45.50;;;14.76;39.38;95729.88;5016774;28;20050;-38
2024/03/30 04:31:16;;;;;;;20.55;4.55;;;13.50;44.70;;;14.77;39.25;95731.50;5032898;28;20049;-38
2024/03/30 04:33:42;;;;;;;30.02;5.32;;;13.50;43.30;;;14.80;39.24;95724.88;5032708;28;20037;-37
2024/03/30 04:36:09;;;;;;;23.23;5.40;;;13.50;44.90;;;14.83;39.10;95729.75;5032460;28;20041;-38
2024/03/30 04:38:36;;;;;;;21.98;6.10;;;13.60;45.00;;;14.84;38.85;95736.75;5033002;28;20496;-37
2024/03/30 04:41:06;;;;;;;18.80;4.95;;;13.60;44.30;;;14.86;38.99;95740.81;5028794;28;20041;-37
2024/03/30 04:43:34;;;;;;;18.40;4.90;;;13.60;44.50;;;14.87;38.51;95742.44;5032488;28;20038;-37
2024/03/30 04:46:04;;;;;;;23.30;6.28;;;13.60;43.90;;;14.90;38.51;95749.19;5032734;28;20046;-37
2024/03/30 04:48:31;;;;;;;22.27;5.45;;;13.60;43.90;;;14.91;38.71;95740.13;5032719;28;20056;-37
2024/03/30 04:51:04;;;;;;;18.35;5.18;;;13.60;44.20;;;14.90;38.81;95746.53;5032559;28;20037;-37
2024/03/30 04:53:33;;;;;;;20.67;6.78;;;13.60;44.70;;;14.90;39.12;95749.19;5009680;28;20528;-37
2024/03/30 04:56:02;;;;;;;23.00;5.60;;;13.60;45.00;;;14.87;38.80;95742.44;5015884;28;20053;-38
2024/03/30 04:58:31;;;;;;;19.45;4.45;;;13.50;45.00;;;14.86;39.15;95740.00;5032460;28;20045;-38
2024/03/30 05:01:06;;;;;;;23.35;5.15;;;13.50;44.90;;;14.84;38.89;95739.44;5016193;28;20052;-37
2024/03/30 05:03:34;;;;;;;22.23;4.22;;;13.50;44.90;;;14.80;38.71;95746.31;5025123;28;20049;-38
2024/03/30 05:06:02;;;;;;;15.98;3.38;;;13.40;45.20;;;14.76;38.75;95741.41;5032333;28;20049;-38
2024/03/30 05:08:30;;;;;;;13.10;5.15;;;13.40;45.10;;;14.74;38.88;95740.00;5032408;28;20180;-38
2024/03/30 05:10:57;;;;;;;19.98;4.95;;;13.40;45.00;;;14.71;38.96;95732.44;5032277;28;20428;-38
2024/03/30 05:13:23;;;;;;;31.20;4.50;;;13.30;45.40;;;14.69;39.14;95737.22;5031801;28;20038;-37
2024/03/30 05:15:50;;;;;;;23.85;5.25;;;13.30;46.10;;;14.68;39.23;95733.72;5032474;28;20042;-38
2024/03/30 05:18:18;;;;;;;16.88;4.85;;;13.20;46.30;;;14.66;39.03;95735.81;5032208;28;20500;-38
2024/03/30 05:20:57;;;;;;;22.45;4.43;;;13.20;46.50;;;14.63;39.57;95730.13;5015418;28;20412;-38
2024/03/30 05:23:32;;;;;;;16.10;4.38;;;13.20;46.00;;;14.63;39.25;95724.75;5031691;28;20044;-37
2024/03/30 05:26:05;;;;;;;27.92;5.28;;;13.20;46.20;;;14.60;39.14;95726.06;5032151;28;20053;-37
2024/03/30 05:28:35;;;;;;;26.65;5.75;;;13.20;46.10;;;14.60;39.18;95733.25;5024710;28;20061;-37
2024/03/30 05:31:09;;;;;;;18.08;5.72;;;13.20;45.80;;;14.61;38.96;95733.03;5032032;28;20037;-37
2024/03/30 05:33:36;;;;;;;13.02;4.45;;;13.20;45.30;;;14.62;38.94;95729.31;5024602;28;20602;-37
2024/03/30 05:36:03;;;;;;;15.10;4.55;;;13.20;45.40;;;14.64;38.66;95723.72;5031811;28;20045;-37
2024/03/30 05:38:30;;;;;;;23.15;5.15;;;13.20;45.20;;;14.66;38.29;95722.44;5031892;28;20393;-38
2024/03/30 05:40:56;;;;;;;25.20;5.55;;;13.30;44.30;;;14.71;37.89;95727.06;5031650;28;20041;-37
2024/03/30 05:43:23;;;;;;;17.25;3.70;;;13.40;43.60;;;14.76;37.68;95727.19;5031201;28;20057;-37
2024/03/30 05:45:56;;;;;;;23.33;4.45;;;13.40;43.40;;;14.83;37.58;95732.41;5030945;28;20045;-37
2024/03/30 05:48:24;;;;;;;22.40;3.80;;;13.50;42.10;;;14.88;37.58;95730.66;5031054;28;20060;-37
2024/03/30 05:50:50;;;;;;;17.17;4.80;;;13.60;42.40;;;14.94;37.62;95735.09;5031284;28;20251;-38
2024/03/30 05:53:17;;;;;;;21.77;5.70;;;13.60;43.10;;;14.99;37.42;95733.59;5014634;28;20112;-37
2024/03/30 05:55:45;;;;;;;21.98;4.47;;;13.70;43.10;;;15.03;37.47;95732.88;5031553;28;20416;-37
2024/03/30 05:58:14;;;;;;;15.40;4.47;;;13.80;43.10;;;15.07;37.59;95738.56;5015172;28;20041;-37
2024/03/30 06:00:41;;;;;;;15.77;4.35;;;13.80;43.00;;;15.12;37.45;95738.66;5031378;28;20045;-38
2024/03/30 06:03:08;;;;;;;19.92;4.75;;;13.80;43.00;;;15.17;37.35;95741.47;5030629;28;20053;-37
2024/03/30 06:05:35;;;;;;;16.75;4.85;;;13.90;42.90;;;15.19;37.46;95733.19;5031442;28;20257;-47
2024/03/30 06:08:01;;;;;;;21.58;5.88;;;13.90;43.30;;;15.25;37.71;95729.56;5014415;28;20053;-37
2024/03/30 06:10:28;;;;;;;23.52;4.43;;;14.00;43.50;;;15.29;37.57;95728.84;5031122;28;20038;-38
2024/03/30 06:12:55;;;;;;;16.77;5.43;;;14.00;43.50;;;15.33;37.43;95719.28;5014223;28;20046;-37
2024/03/30 06:15:21;;;;;;;12.38;3.58;;;14.00;43.40;;;15.40;37.42;95712.97;5031068;28;20041;-37
2024/03/30 06:17:48;;;;;;;26.83;5.68;;;14.10;43.00;;;15.44;37.11;95712.25;5031038;28;20045;-38
2024/03/30 06:20:15;;;;;;;14.75;4.90;;;14.20;42.60;;;15.50;36.38;95724.69;5030928;28;20531;-38
2024/03/30 06:22:41;;;;;;;25.02;6.43;;;14.20;40.60;;;15.54;36.37;95722.34;5030108;28;20053;-38
2024/03/30 06:25:08;;;;;;;21.98;3.75;;;14.30;41.40;;;15.63;36.35;95714.75;5030788;28;20424;-38
2024/03/30 06:27:35;;;;;;;22.02;4.55;;;14.40;41.20;;;15.68;36.26;95714.81;5031042;28;20050;-38
2024/03/30 06:30:02;;;;;;;16.58;4.07;;;14.40;41.30;;;15.72;36.39;95713.28;5030870;28;20041;-38
2024/03/30 06:32:29;;;;;;;18.25;4.22;;;14.50;41.40;;;15.81;36.36;95714.56;5030118;28;20041;-38
2024/03/30 06:34:56;;;;;;;17.92;4.43;;;14.60;41.30;;;15.85;36.14;95702.28;5030628;28;20421;-38
2024/03/30 06:37:22;;;;;;;25.95;4.50;;;14.60;41.00;;;15.91;36.10;95697.81;5030653;28;20041;-38
2024/03/30 06:45:19;;;;;;;16.38;3.47;;;14.80;42.90;;;15.97;37.25;95675.38;5029781;28;20049;-38
2024/03/30 06:47:46;;;;;;;26.40;5.10;;;14.70;43.30;;;15.96;37.88;95675.66;5013883;28;20045;-40
2024/03/30 06:50:12;;;;;;;14.60;4.07;;;14.70;44.70;;;15.94;38.33;95679.38;5030494;28;20517;-38
2024/03/30 06:52:39;;;;;;;21.08;4.78;;;14.60;45.90;;;15.92;38.67;95681.50;5029909;28;20033;-38
2024/03/30 06:55:06;;;;;;;19.08;5.70;;;14.50;46.60;;;15.90;38.59;95690.84;5030378;28;20037;-38
2024/03/30 06:57:32;;;;;;;18.75;4.60;;;14.40;46.80;;;15.86;38.90;95703.94;5030398;28;20037;-38
2024/03/30 07:00:01;;;;;;;16.98;4.90;;;14.40;47.30;;;15.82;39.45;95700.09;5029817;28;20034;-38
2024/03/30 07:02:27;;;;;;;18.98;5.03;;;14.40;48.70;;;15.78;40.00;95700.81;5029647;28;20052;-38
2024/03/30 07:04:54;;;;;;;16.95;4.93;;;14.20;49.90;;;15.74;40.10;95704.00;5030390;28;20543;-38
2024/03/30 07:07:21;;;;;;;17.92;5.28;;;14.20;49.90;;;15.70;39.84;95713.53;5030181;28;20037;-38
2024/03/30 07:09:47;;;;;;;25.45;6.65;;;14.10;49.20;;;15.68;39.12;95712.97;5030358;28;20046;-38
2024/03/30 07:12:14;;;;;;;22.17;4.03;;;14.10;47.70;;;15.66;38.84;95712.38;5029880;28;20400;-38
2024/03/30 07:14:41;;;;;;;19.42;4.47;;;14.10;47.20;;;15.67;38.75;95721.25;5030215;28;20044;-38
2024/03/30 07:17:08;;;;;;;22.55;6.03;;;14.20;47.20;;;15.64;38.81;95719.84;5030008;28;20049;-39
2024/03/30 07:19:34;;;;;;;12.25;3.28;;;14.20;46.40;;;15.64;39.07;95719.84;5030121;28;20044;-38
2024/03/30 07:22:01;;;;;;;23.52;5.57;;;14.20;47.10;;;15.65;39.33;95724.19;5013175;28;20416;-38
2024/03/30 07:24:27;;;;;;;11.32;3.95;;;14.20;47.70;;;15.64;39.22;95719.84;5013345;28;20416;-38
2024/03/30 07:26:54;;;;;;;25.17;4.95;;;14.10;48.20;;;15.62;39.30;95710.41;5030082;28;20417;-38
2024/03/30 07:29:21;;;;;;;13.68;4.78;;;14.00;48.30;;;15.62;39.45;95716.59;5013578;28;20042;-38
2024/03/30 07:31:47;;;;;;;21.65;6.47;;;14.00;48.90;;;15.62;39.85;95721.16;5029553;28;20049;-37
2024/03/30 07:34:14;;;;;;;16.83;4.80;;;14.00;49.30;;;15.60;40.38;95716.03;5029764;28;20041;-38
2024/03/30 07:36:41;;;;;;;17.50;5.53;;;13.90;50.50;;;15.59;40.45;95714.41;5013403;28;20037;-38
2024/03/30 07:39:07;;;;;;;19.77;4.95;;;13.90;50.60;;;15.56;40.25;95721.03;5030009;28;20037;-38
2024/03/30 07:41:34;;;;;;;18.55;5.13;;;13.90;50.20;;;15.55;40.77;95722.13;5026522;28;20329;-38
2024/03/30 07:44:00;;;;;;;18.48;5.45;;;13.80;50.50;;;15.54;40.60;95717.78;5028716;28;20049;-38
2024/03/30 07:46:27;;;;;;;25.65;5.07;;;13.80;50.70;;;15.53;41.42;95721.53;5029813;28;20049;-37
2024/03/30 07:48:54;;;;;;;20.17;5.10;;;13.90;51.40;;;15.50;41.56;95719.31;5029887;28;20041;-38
2024/03/30 07:51:20;;;;;;;22.00;5.10;;;13.80;52.10;;;15.49;42.23;95723.06;5029691;28;20056;-39
2024/03/30 07:53:47;;;;;;;13.25;4.00;;;13.80;53.50;;;15.45;42.24;95723.78;5029466;28;20420;-38
2024/03/30 07:56:13;;;;;;;20.25;6.82;;;13.70;53.60;;;15.41;42.44;95725.31;5029862;28;20046;-39
2024/03/30 07:58:40;;;;;;;18.05;4.75;;;13.70;54.10;;;15.36;42.46;95723.34;5029114;28;20026;-38
2024/03/30 08:01:07;;;;;;;18.85;5.70;;;13.60;54.00;;;15.32;42.84;95727.56;5029568;28;20038;-38
2024/03/30 08:03:33;;;;;;;16.98;4.38;;;13.60;54.60;;;15.28;43.22;95732.59;5028984;28;20424;-38
2024/03/30 08:06:00;;;;;;;13.20;4.28;;;13.50;55.30;;;15.26;43.05;95726.66;5029700;28;20048;-39
2024/03/30 08:08:27;;;;;;;12.25;4.18;;;13.50;54.90;;;15.25;42.91;95724.19;5029200;28;20048;-38
2024/03/30 08:10:54;;;;;;;20.02;6.53;;;13.50;54.30;;;15.22;42.87;95722.81;5029713;28;20046;-38
2024/03/30 08:13:20;;;;;;;18.42;5.50;;;13.50;54.40;;;15.22;43.02;95721.97;5016308;28;20036;-39
2024/03/30 08:15:48;;;;;;;21.17;5.05;;;13.50;54.90;;;15.21;43.13;95720.38;5033108;28;20398;-38
2024/03/30 08:18:15;;;;;;;17.80;5.53;;;13.50;54.40;;;15.21;42.75;95725.72;5033222;28;20052;-38
2024/03/30 08:20:42;;;;;;;15.30;5.20;;;13.40;54.30;;;15.22;42.99;95727.34;5033013;28;20045;-38
2024/03/30 08:23:08;;;;;;;15.90;4.53;;;13.50;54.80;;;15.24;42.76;95731.44;5032475;28;20049;-38
2024/03/30 08:25:35;;;;;;;24.63;5.97;;;13.50;54.20;;;15.26;42.40;95725.84;5032783;28;20041;-38
2024/03/30 08:28:03;;;;;;;19.17;5.43;;;13.60;53.40;;;15.29;42.69;95726.16;5032770;28;20045;-38
2024/03/30 08:30:30;;;;;;;19.92;6.22;;;13.60;53.80;;;15.32;42.73;95719.53;5033005;28;20057;-38
2024/03/30 08:32:57;;;;;;;15.20;5.00;;;13.60;53.80;;;15.34;42.94;95722.78;5032290;28;20034;-38
2024/03/30 08:35:24;;;;;;;18.02;4.85;;;13.70;54.30;;;15.38;42.46;95736.53;5032724;28;20045;-39
2024/03/30 08:37:51;;;;;;;21.67;5.30;;;13.70;53.80;;;15.40;41.45;95739.78;5016739;28;20112;-39
2024/03/30 08:40:18;;;;;;;18.35;4.53;;;13.80;51.30;;;15.42;40.90;95729.63;5033025;28;20045;-39
2024/03/30 08:42:45;;;;;;;28.90;4.63;;;13.90;49.90;;;15.44;40.26;95727.53;5032295;28;20049;-39
2024/03/30 08:45:12;;;;;;;15.20;5.50;;;14.00;48.40;;;15.49;40.27;95728.44;5032028;28;20042;-39
2024/03/30 08:47:39;;;;;;;20.67;6.28;;;14.00;47.70;;;15.53;40.45;95718.06;5032366;28;20509;-39
2024/03/30 08:50:06;;;;;;;11.45;4.15;;;14.10;48.20;;;15.58;40.38;95714.66;5032762;28;20068;-39
2024/03/30 08:52:32;;;;;;;12.52;4.10;;;14.10;49.30;;;15.59;40.84;95709.03;5031927;28;20041;-39
2024/03/30 08:54:59;;;;;;;22.08;3.83;;;14.10;49.90;;;15.62;40.96;95702.38;5032416;28;20431;-39
2024/03/30 08:57:25;;;;;;;24.55;4.47;;;14.10;50.40;;;15.65;41.61;95709.97;5032500;28;20033;-39
2024/03/30 08:59:52;;;;;;;13.98;4.50;;;14.10;51.40;;;15.65;41.67;95712.63;5032465;28;20041;-39
2024/03/30 09:02:19;;;;;;;19.23;4.53;;;14.10;51.40;;;15.65;41.91;95718.81;5032000;28;20041;-39
2024/03/30 09:04:47;;;;;;;20.95;4.90;;;14.10;52.30;;;15.65;41.50;95718.00;5032354;28;20041;-39
2024/03/30 09:07:14;;;;;;;16.30;4.80;;;14.10;51.20;;;15.63;42.16;95718.22;5032297;28;20044;-39
2024/03/30 09:09:41;;;;;;;17.90;4.35;;;14.10;52.70;;;15.61;42.67;95714.97;5032147;28;20048;-39
2024/03/30 09:12:08;;;;;;;16.58;5.18;;;14.00;53.90;;;15.57;43.33;95711.16;5031781;28;20045;-39
2024/03/30 09:14:35;;;;;;;20.17;4.28;;;13.90;55.20;;;15.52;43.90;95709.16;5031807;28;20046;-39
2024/03/30 09:17:04;;;;;;;15.48;4.25;;;13.90;56.20;;;15.49;44.05;95715.03;5032254;28;20061;-39
2024/03/30 09:19:31;;;;;;;18.67;5.75;;;13.80;56.90;;;15.46;44.00;95714.69;5032161;28;20420;-39
2024/03/30 09:21:58;;;;;;;20.45;5.47;;;13.70;56.90;;;15.45;43.82;95721.94;5031839;28;20505;-39
2024/03/30 09:24:24;;;;;;;23.75;5.28;;;13.70;56.40;;;15.44;43.34;95728.34;5030667;28;20045;-39
2024/03/30 09:26:51;;;;;;;20.33;5.32;;;13.70;55.30;;;15.47;43.02;95727.03;5032105;28;20041;-39
2024/03/30 09:29:18;;;;;;;17.50;4.95;;;13.70;54.60;;;15.46;42.24;95720.06;5032044;28;20060;-39
2024/03/30 09:31:44;;;;;;;24.98;6.43;;;13.80;52.60;;;15.47;41.16;95727.03;5031420;28;20639;-39
2024/03/30 09:34:11;;;;;;;21.42;4.40;;;13.90;50.50;;;15.48;40.62;95724.13;5015611;28;20048;-39
2024/03/30 09:36:37;;;;;;;17.30;4.65;;;14.00;48.90;;;15.51;40.47;95720.97;5031350;28;20052;-39
2024/03/30 09:39:04;;;;;;;15.00;4.90;;;14.00;48.60;;;15.54;40.29;95725.03;5031812;28;20042;-37
2024/03/30 09:42:00;;;;;;;25.40;6.15;;;14.10;48.60;;;15.59;40.42;95727.00;5031255;28;20037;-37
2024/03/30 09:44:27;;;;;;;17.23;5.32;;;14.10;48.90;;;15.64;39.99;95727.09;5017806;28;20045;-37
2024/03/30 09:46:54;;;;;;;18.38;5.10;;;14.20;48.10;;;15.64;39.81;95725.22;5030892;28;20045;-37
2024/03/30 09:49:23;;;;;;;18.90;4.70;;;14.20;47.50;;;15.67;39.71;95722.06;5031564;28;20068;-37
2024/03/30 09:51:51;;;;;;;26.80;4.85;;;14.30;47.00;;;15.68;39.26;95723.72;5031191;28;20104;-38
2024/03/30 09:54:19;;;;;;;20.65;4.68;;;14.30;46.60;;;15.71;39.23;95714.34;5031356;28;20038;-38
2024/03/30 09:56:47;;;;;;;22.08;4.68;;;14.30;46.70;;;15.74;39.26;95717.41;5029202;28;20072;-37
2024/03/30 09:59:15;;;;;;;20.30;5.03;;;14.40;46.70;;;15.77;38.95;95713.41;5030391;28;20440;-37
2024/03/30 10:01:42;;;;;;;21.60;5.35;;;14.40;45.90;;;15.82;38.92;95720.72;5013457;28;20038;-37
2024/03/30 10:04:08;;;;;;;19.17;4.68;;;14.40;45.70;;;15.84;38.41;95718.63;5030177;28;20053;-37
2024/03/30 10:06:48;;;;;;;28.42;5.45;;;14.50;45.00;;;15.87;38.65;95718.16;5031102;28;20050;-38
2024/03/30 10:09:19;;;;;;;16.67;4.07;;;14.50;44.20;;;15.90;38.70;95717.69;5015453;28;20050;-37
2024/03/30 10:11:46;;;;;;;24.83;6.03;;;14.60;45.60;;;15.94;38.74;95718.81;5014692;28;20054;-37
2024/03/30 10:14:31;;;;;;;23.52;5.28;;;14.60;45.60;;;15.95;38.80;95715.06;4998083;28;20520;-37
2024/03/30 10:17:00;;;;;;;23.00;5.95;;;14.60;45.00;;;15.99;38.59;95708.16;5015068;28;20053;-38
2024/03/30 10:19:30;;;;;;;22.52;5.88;;;14.60;45.90;;;16.02;38.84;95702.31;5030899;28;20033;-38